Celebrity Silhouette — 9HA2583 — position and weather

sailwx.info

Track history (hours):
 
Tides and Currents Weather Stations Pressure Air Temp Water Temp Dewpoint Dewpoint Depression Visibility Wind Speed Wind Dir Waves Ship Positions

Celebrity Silhouette

Last reported at 2019-Sep-21 23:31 UTC. Time now 2019-Sep-21 23:43 UTC.
Position N 50°10' W 001°27'.

Length 318 m; draft 8.6 m.

Type: Passenger vessel. MMSI: 248939000.

Date/timePositionNaut miles runAvg speedWind from/ knotsBaromVisibWave heightAir tempDewpointWater temp
2019-Sep-21 23:31N 50°10' W 001°27'714.6
2019-Sep-21 23:00N 50°06' W 001°37'6417.9
2019-Sep-21 23:00N 50°00' W 001°36'918.4 150 / 201005.3 5.4 20.317.418.4
2019-Sep-21 22:31N 50°04' W 001°48'815.8
2019-Sep-21 22:00N 50°01' W 002°00'815.9
2019-Sep-21 21:31N 49°59' W 002°12'815.9
2019-Sep-21 21:00N 49°57' W 002°24'815.8
2019-Sep-21 20:29N 49°54' W 002°36'815.9
2019-Sep-21 20:00N 49°52' W 002°47'815.9
2019-Sep-21 19:30N 49°49' W 002°58'915.7
2019-Sep-21 18:57N 49°44' W 003°10'715.8
2019-Sep-21 18:30N 49°40' W 003°20'1015.9
2019-Sep-21 17:51N 49°36' W 003°34'2315.9
2019-Sep-21 16:23N 49°22' W 004°04'512.2
2019-Sep-21 16:00N 49°18' W 004°06'924.6 160 / 221005.810.8 17.817.116.5
2019-Sep-21 15:38N 49°16' W 004°19'316.1
2019-Sep-21 15:28N 49°15' W 004°23'1225.9
2019-Sep-21 15:00N 49°06' W 004°36'5253.4 150 / 111001.510.8 17.013.415.0
2019-Sep-21 14:58N 49°11' W 004°33'816.1
2019-Sep-21 14:29N 49°06' W 004°43'815.9
2019-Sep-21 14:00N 49°01' W 004°52'714.1
2019-Sep-21 13:30N 48°59' W 005°02'815.8
2019-Sep-21 12:59N 48°56' W 005°14'816.1
2019-Sep-21 12:30N 48°52' W 005°24'816.6
2019-Sep-21 12:00N 48°48' W 005°35'815.8
2019-Sep-21 11:30N 48°42' W 005°42'916.4
2019-Sep-21 10:58N 48°34' W 005°49'716.0
2019-Sep-21 10:30N 48°28' W 005°54'816.2
2019-Sep-21 10:00N 48°20' W 005°59'4308.1
2019-Sep-21 10:00N 48°18' W 005°54'917.7 160 / 171006.2 5.4 18.617.617.9
2019-Sep-21 09:30N 48°13' W 006°04'815.8
2019-Sep-21 08:58N 48°05' W 006°11'817.0
2019-Sep-21 08:30N 47°58' W 006°16'1217.4
2019-Sep-21 07:49N 47°48' W 006°24'618.1
2019-Sep-21 07:30N 47°43' W 006°28'1117.6
2019-Sep-21 06:54N 47°33' W 006°35'917.8
2019-Sep-21 06:22N 47°25' W 006°41'1436.1
2019-Sep-21 06:00N 47°12' W 006°48'2 8.3 170 / 141005.810.8 18.316.919.0
2019-Sep-21 05:42N 47°14' W 006°49'5620.6
2019-Sep-21 03:00N 46°24' W 007°24'58 8.3 190 / 121005.310.8 18.010.219.0
2019-Sep-20 20:00N 45°48' W 008°30'13734.4 210 / 171010.2 5.4 18.018.020.0
2019-Sep-20 16:00N 43°36' W 009°24'6716.8 200 / 171012.5 0.3 17.316.217.1
2019-Sep-20 12:00N 42°30' W 009°42'2412.0 160 / 151014.0 5.4 18.016.617.0
2019-Sep-20 10:00N 42°06' W 009°42'9619.2 180 / 91014.6 5.4 19.218.118.3
2019-Sep-20 05:00N 40°30' W 009°48'2914.8 120 / 51014.610.8 19.718.618.6
2019-Sep-20 03:02N 40°01' W 009°47'817.7
2019-Sep-20 02:34N 39°53' W 009°47'417.3
2019-Sep-20 02:20N 39°49' W 009°47'411.2
2019-Sep-20 02:00N 39°48' W 009°42'1233.9 290 / 51015.627.0 19.017.420.0
2019-Sep-20 01:39N 39°37' W 009°47'1016.9
2019-Sep-20 01:05N 39°27' W 009°46'116.2
2019-Sep-20 00:59N 39°26' W 009°46'816.7
2019-Sep-20 00:30N 39°18' W 009°46'816.4
2019-Sep-20 00:01N 39°10' W 009°45'816.5
2019-Sep-19 23:31N 39°01' W 009°44'917.1
2019-Sep-19 23:01N 38°53' W 009°43'11644.3
2019-Sep-19 23:00N 38°42' W 009°42'3 5.3 290 / 151017.410.8 19.118.918.0
2019-Sep-19 22:31N 38°44' W 009°43'714.8
2019-Sep-19 22:01N 38°38' W 009°38'916.9
2019-Sep-19 21:30N 38°37' W 009°27'714.6
2019-Sep-19 21:01N 38°40' W 009°19'611.6
2019-Sep-19 20:30N 38°41' W 009°11'3 6.0
2019-Sep-19 20:00N 38°42' W 009°08'0 0.0
2019-Sep-19 19:30N 38°42' W 009°08'0 0.0
2019-Sep-19 18:59N 38°42' W 009°08'0 0.0
2019-Sep-19 18:30N 38°42' W 009°08'0 0.0
2019-Sep-19 18:01N 38°42' W 009°08'0 0.0
2019-Sep-19 17:30N 38°42' W 009°08'0 0.0
2019-Sep-19 17:00N 38°42' W 009°08'0 0.0
2019-Sep-19 16:28N 38°42' W 009°08'0 0.0
2019-Sep-19 15:58N 38°42' W 009°08'0 0.0
2019-Sep-19 15:28N 38°42' W 009°08'0 0.0
2019-Sep-19 14:58N 38°42' W 009°08'0 0.0
2019-Sep-19 14:28N 38°42' W 009°08'0 0.0
2019-Sep-19 14:00N 38°42' W 009°08'0 0.0
2019-Sep-19 13:30N 38°42' W 009°08'0 0.0
2019-Sep-19 13:00N 38°42' W 009°08'191.3
2019-Sep-19 13:00N 38°42' W 009°06'1 2.9 260 / 111013.110.8 22.013.921.0
2019-Sep-19 12:30N 38°42' W 009°08'0 0.0
2019-Sep-19 12:00N 38°42' W 009°08'0 0.5
2019-Sep-19 11:30N 38°42' W 009°07'5 9.9
2019-Sep-19 11:00N 38°41' W 009°14'612.2
2019-Sep-19 10:30N 38°39' W 009°21'714.0
2019-Sep-19 10:00N 38°32' W 009°25'815.5
2019-Sep-19 09:31N 38°25' W 009°25'817.0
2019-Sep-19 09:01N 38°16' W 009°24'816.5
2019-Sep-19 08:31N 38°08' W 009°24'816.7
2019-Sep-19 08:01N 37°60' W 009°23'816.1
2019-Sep-19 07:31N 37°51' W 009°23'918.3
2019-Sep-19 07:01N 37°42' W 009°23'4215.5
2019-Sep-19 07:00N 37°42' W 009°18'1021.1 350 / 111018.210.8 20.417.522.6
2019-Sep-19 06:30N 37°32' W 009°22'4019.7
2019-Sep-19 04:29N 36°52' W 009°18'1428.8
2019-Sep-19 04:00N 36°42' W 009°06'211.9 010 / 141017.610.8 20.118.523.3
2019-Sep-19 03:50N 36°44' W 009°06'720.4
2019-Sep-19 03:29N 36°41' W 008°58'1836.4
2019-Sep-19 03:00N 36°36' W 008°36'8466.3 350 / 201012.910.8 20.011.822.0
2019-Sep-19 02:59N 36°39' W 008°45'1720.0
2019-Sep-19 02:07N 36°34' W 008°24'520.4
2019-Sep-19 01:51N 36°32' W 008°18'920.4
2019-Sep-19 01:26N 36°29' W 008°08'1020.1
2019-Sep-19 00:57N 36°26' W 007°57'10421.0
2019-Sep-18 20:00N 35°54' W 005°54'10317.2 320 / 121017.8 5.4 21.317.821.9
2019-Sep-18 14:00N 36°12' W 003°48'18618.6 240 / 121011.510.8 23.014.924.0
2019-Sep-18 04:00N 37°42' W 000°24'7121.3 320 / 121014.310.8 23.222.423.8
2019-Sep-18 00:40N 38°43' E 000°23'1 1.2
2019-Sep-18 00:00N 38°42' E 000°24'2837.6 030 / 41015.127.0 24.022.325.0
2019-Sep-17 23:15N 39°08' E 000°38'5419.4
2019-Sep-17 20:29N 39°54' E 001°12'919.8
2019-Sep-17 20:01N 40°03' E 001°18'3202.9
2019-Sep-17 20:00N 40°06' E 001°18'1016.0 230 / 51015.9 5.4 23.917.225.2
2019-Sep-17 19:20N 40°14' E 001°26'719.9
2019-Sep-17 19:01N 40°20' E 001°30'1019.8
2019-Sep-17 18:31N 40°29' E 001°36'1020.0
2019-Sep-17 18:01N 40°38' E 001°43'1020.4
2019-Sep-17 17:30N 40°47' E 001°49'1020.1
2019-Sep-17 17:00N 40°56' E 001°56'5531.2
2019-Sep-17 17:00N 41°00' E 001°54'714.8 210 / 41015.310.8 25.018.024.8
2019-Sep-17 16:31N 41°04' E 002°02'918.8
2019-Sep-17 16:01N 41°12' E 002°08'713.8
2019-Sep-17 15:30N 41°19' E 002°10'2 4.8
2019-Sep-17 15:00N 41°22' E 002°11'0 0.0
2019-Sep-17 14:28N 41°22' E 002°11'0 0.0
2019-Sep-17 13:57N 41°22' E 002°11'0 0.0
2019-Sep-17 13:29N 41°22' E 002°11'510.2
2019-Sep-17 13:00N 41°18' E 002°06'5547.0 160 / 51016.827.0 25.015.424.0
2019-Sep-17 12:59N 41°22' E 002°11'0 0.0
2019-Sep-17 12:29N 41°22' E 002°11'0 0.0
2019-Sep-17 11:58N 41°22' E 002°11'0 0.0
2019-Sep-17 11:30N 41°22' E 002°11'0 0.0
2019-Sep-17 11:00N 41°22' E 002°11'0 0.0
2019-Sep-17 10:30N 41°22' E 002°11'5 3.3
2019-Sep-17 09:00N 41°18' E 002°06'4 1.2 070 / 51018.2 5.4 24.412.424.2
2019-Sep-17 05:25N 41°21' E 002°10'1 3.6
2019-Sep-17 05:01N 41°19' E 002°10'4 8.9
2019-Sep-17 04:31N 41°16' E 002°13'816.4
2019-Sep-17 04:01N 41°15' E 002°24'1019.6
2019-Sep-17 03:31N 41°16' E 002°37'1019.9
2019-Sep-17 03:01N 41°17' E 002°50'1020.0
2019-Sep-17 02:31N 41°18' E 003°03'1020.1
2019-Sep-17 02:01N 41°19' E 003°17'271622.9
2019-Sep-17 02:00N 41°12' E 002°42'3776.5 130 / 41017.5 2.2 22.421.622.7
2019-Sep-17 01:30N 41°21' E 003°30'1019.8
2019-Sep-17 01:00N 41°22' E 003°43'7437.3
2019-Sep-17 01:00N 41°18' E 003°36'1632.9 140 / 81013.310.8 22.013.922.0
2019-Sep-17 00:31N 41°23' E 003°56'1019.5
2019-Sep-17 00:01N 41°24' E 004°09'1019.3
2019-Sep-16 23:31N 41°25' E 004°22'1019.5
2019-Sep-16 23:01N 41°27' E 004°35'1019.4
2019-Sep-16 22:31N 41°28' E 004°48'1019.3
2019-Sep-16 22:01N 41°29' E 005°00'1019.4
2019-Sep-16 21:31N 41°30' E 005°13'1019.4
2019-Sep-16 21:01N 41°31' E 005°26'6371.1
2019-Sep-16 21:00N 41°30' E 005°18'1632.8 040 / 81018.810.8 23.021.724.2
2019-Sep-16 20:30N 41°32' E 005°39'1019.5
2019-Sep-16 20:01N 41°34' E 005°52'1019.1
2019-Sep-16 19:31N 41°35' E 006°05'918.7
2019-Sep-16 19:00N 41°36' E 006°17'918.9
2019-Sep-16 18:31N 41°37' E 006°30'1019.1
2019-Sep-16 18:00N 41°38' E 006°42'919.0
2019-Sep-16 17:31N 41°39' E 006°55'1019.1
2019-Sep-16 17:01N 41°40' E 007°08'1019.1
2019-Sep-16 16:30N 41°42' E 007°20'1019.2
2019-Sep-16 16:01N 41°43' E 007°33'1019.2
2019-Sep-16 15:31N 41°44' E 007°46'1019.1
2019-Sep-16 15:01N 41°46' E 007°58'5289.7
2019-Sep-16 15:00N 41°42' E 007°54'1428.3 280 / 61018.6 5.4 25.3 6.526.0
2019-Sep-16 14:31N 41°47' E 008°11'1019.5
2019-Sep-16 14:01N 41°48' E 008°24'1019.5
2019-Sep-16 13:31N 41°50' E 008°37'5 1.5
2019-Sep-16 10:00N 41°54' E 008°42'2 0.4 200 / 61020.427.0 25.016.825.0
2019-Sep-16 04:07N 41°55' E 008°45'0 0.7
2019-Sep-16 04:00N 41°55' E 008°45'4 7.5
2019-Sep-16 03:31N 41°52' E 008°44'714.0
2019-Sep-16 03:01N 41°48' E 008°35'8452.5
2019-Sep-16 03:00N 41°42' E 008°30'3 5.9 340 / 51020.510.8 23.719.125.0
2019-Sep-16 02:31N 41°42' E 008°34'917.9
2019-Sep-16 02:00N 41°34' E 008°39'5275.4
2019-Sep-16 02:00N 41°30' E 008°36'817.1 040 / 61016.110.8 23.014.625.0
2019-Sep-16 01:30N 41°26' E 008°46'816.6
2019-Sep-16 01:00N 41°21' E 008°55'917.4
2019-Sep-16 00:31N 41°19' E 009°06'1817.5
2019-Sep-15 23:28N 41°24' E 009°29'918.6
2019-Sep-15 23:01N 41°28' E 009°40'918.5
2019-Sep-15 22:30N 41°31' E 009°51'918.9
2019-Sep-15 22:00N 41°35' E 010°03'1019.3
2019-Sep-15 21:29N 41°39' E 010°15'919.1
2019-Sep-15 21:00N 41°43' E 010°26'1019.2
2019-Sep-15 20:30N 41°46' E 010°38'1019.3
2019-Sep-15 20:01N 41°50' E 010°50'6382.2
2019-Sep-15 20:00N 41°48' E 010°42'1633.3 210 / 71022.5 23.214.323.9
2019-Sep-15 19:31N 41°54' E 011°02'1019.6
2019-Sep-15 19:00N 41°58' E 011°14'1019.5
2019-Sep-15 18:30N 42°01' E 011°26'1019.3
2019-Sep-15 18:00N 42°05' E 011°38'6 2.7
2019-Sep-15 16:00N 42°00' E 011°42'6 1.5 260 / 81023.027.0 25.111.723.9
2019-Sep-15 12:00N 42°06' E 011°42'6 2.0 160 / 71024.027.0 27.010.323.0
2019-Sep-15 09:00N 42°00' E 011°42'9 1.5 110 / 51025.3 5.4 25.510.223.7
2019-Sep-15 03:00N 42°00' E 011°30'3316.7 160 / 71024.010.8 23.013.025.4
2019-Sep-15 01:00N 42°12' E 010°48'3140.9 070 / 101019.810.8 24.015.825.0
2019-Sep-15 00:58N 42°14' E 010°51'817.1
2019-Sep-15 00:30N 42°19' E 010°43'917.3
2019-Sep-14 23:59N 42°25' E 010°34'917.5
2019-Sep-14 23:29N 42°30' E 010°25'1017.4
2019-Sep-14 22:57N 42°37' E 010°15'817.6
2019-Sep-14 22:30N 42°42' E 010°07'816.6
2019-Sep-14 22:00N 42°49' E 010°02'816.7
2019-Sep-14 21:30N 42°57' E 010°01'917.5
2019-Sep-14 21:00N 43°06' E 009°60'917.9
2019-Sep-14 20:30N 43°13' E 009°53'917.9
2019-Sep-14 20:00N 43°20' E 009°45'816.9
2019-Sep-14 19:30N 43°29' E 009°43'917.2
2019-Sep-14 19:00N 43°37' E 009°45'3185.0
2019-Sep-14 19:00N 43°36' E 009°42'1021.6 010 / 121025.2 5.4 25.515.625.5
2019-Sep-14 18:30N 43°46' E 009°47'817.0
2019-Sep-14 18:00N 43°54' E 009°50'816.6
2019-Sep-14 17:30N 44°02' E 009°52'4 8.6
2019-Sep-14 17:00N 44°06' E 009°50'0 0.3
2019-Sep-14 16:29N 44°06' E 009°50'0 0.0
2019-Sep-14 15:59N 44°06' E 009°50'0 0.0
2019-Sep-14 15:29N 44°06' E 009°50'2 3.4
2019-Sep-14 15:00N 44°06' E 009°48'2231.5 050 / 51024.910.8 28.518.124.7
2019-Sep-14 14:59N 44°06' E 009°50'0 0.0
2019-Sep-14 14:29N 44°06' E 009°50'0 0.0
2019-Sep-14 13:59N 44°06' E 009°50'0 0.0
2019-Sep-14 13:29N 44°06' E 009°50'2 3.4
2019-Sep-14 13:00N 44°06' E 009°48'2231.5 130 / 101021.610.8 26.017.724.0
2019-Sep-14 12:59N 44°06' E 009°50'0 0.0
2019-Sep-14 12:29N 44°06' E 009°50'0 0.0
2019-Sep-14 11:59N 44°06' E 009°50'0 0.0
2019-Sep-14 11:29N 44°06' E 009°50'0 0.0
2019-Sep-14 10:59N 44°06' E 009°50'0 0.0
2019-Sep-14 10:29N 44°06' E 009°50'0 0.0
2019-Sep-14 09:59N 44°06' E 009°50'0 0.0
2019-Sep-14 09:29N 44°06' E 009°50'2 3.4
2019-Sep-14 09:00N 44°06' E 009°48'2240.9 330 / 41027.9 5.4 25.0-6.424.4
2019-Sep-14 08:59N 44°06' E 009°50'0 0.0
2019-Sep-14 08:28N 44°06' E 009°50'0 0.0
2019-Sep-14 07:58N 44°06' E 009°50'0 0.0
2019-Sep-14 07:28N 44°06' E 009°50'0 0.0
2019-Sep-14 06:58N 44°06' E 009°50'0 0.0
2019-Sep-14 06:28N 44°06' E 009°50'0 0.0
2019-Sep-14 05:58N 44°06' E 009°50'0 0.0
2019-Sep-14 05:28N 44°06' E 009°50'0 0.0
2019-Sep-14 04:58N 44°06' E 009°50'0 0.4
2019-Sep-14 04:30N 44°06' E 009°50'1 2.7
2019-Sep-14 04:00N 44°05' E 009°51'611.7
2019-Sep-14 03:30N 44°01' E 009°56'815.1
2019-Sep-14 03:01N 43°54' E 009°50'12722.9
2019-Sep-14 03:00N 43°48' E 009°36'4 7.6 100 / 71026.910.8 24.216.025.1
2019-Sep-14 02:30N 43°51' E 009°39'917.5
2019-Sep-14 02:01N 43°47' E 009°28'9539.7
2019-Sep-14 02:00N 43°42' E 009°18'2 4.5 100 / 101022.310.8 24.015.824.0
2019-Sep-14 01:30N 43°44' E 009°17'918.2
2019-Sep-14 01:00N 43°40' E 009°05'918.6
2019-Sep-14 00:30N 43°37' E 008°53'918.7
2019-Sep-14 00:00N 43°33' E 008°42'918.8
2019-Sep-13 23:30N 43°29' E 008°30'918.9
2019-Sep-13 23:00N 43°25' E 008°18'919.0
2019-Sep-13 22:31N 43°22' E 008°06'918.4
2019-Sep-13 22:00N 43°18' E 007°54'918.4
2019-Sep-13 21:30N 43°15' E 007°42'918.5
2019-Sep-13 21:00N 43°12' E 007°30'1019.0
2019-Sep-13 20:30N 43°09' E 007°18'1019.2
2019-Sep-13 20:00N 43°06' E 007°06'1019.1
2019-Sep-13 19:30N 43°02' E 006°53'1019.1
2019-Sep-13 19:00N 42°60' E 006°41'7418.5
2019-Sep-13 19:00N 42°54' E 006°36'611.7 360 / 101027.4 5.4 24.211.224.2
2019-Sep-13 18:30N 42°56' E 006°29'1018.5
2019-Sep-13 17:57N 42°54' E 006°15'4221.5
2019-Sep-13 16:00N 43°00' E 005°18'7110.8 320 / 31028.210.8 25.3 9.624.0
2019-Sep-13 15:56N 43°04' E 005°26'15 3.1
2019-Sep-13 11:00N 43°18' E 005°18'0 0.0 240 / 51029.527.0 18.0-6.626.0
2019-Sep-13 07:00N 43°18' E 005°18'30 7.4 270 / 21028.6 5.4 23.4-13.419.4
2019-Sep-13 03:00N 42°54' E 004°54'3029.8 030 / 51028.610.8 21.710.921.0
2019-Sep-13 02:00N 42°30' E 004°30'4916.3 340 / 181023.610.8 22.0 3.720.0
2019-Sep-12 22:58N 41°53' E 003°46'919.4
2019-Sep-12 22:30N 41°46' E 003°39'1019.4
2019-Sep-12 22:00N 41°38' E 003°31'1019.2
2019-Sep-12 21:30N 41°30' E 003°24'1019.7
2019-Sep-12 21:00N 41°22' E 003°16'5337.3
2019-Sep-12 21:00N 41°18' E 003°12'5 9.9 050 / 191028.5 5.4 21.812.423.0
2019-Sep-12 20:30N 41°15' E 003°08'1020.0
2019-Sep-12 20:00N 41°07' E 002°60'1019.7
2019-Sep-12 19:30N 40°59' E 002°52'9621.3
2019-Sep-12 15:00N 39°42' E 001°36'2311.4 070 / 381025.610.8 24.716.725.7
2019-Sep-12 13:00N 39°24' E 001°18'12819.7 060 / 341020.310.8 25.016.825.0
2019-Sep-12 06:30N 37°42' W 000°22'6919.7
2019-Sep-12 03:00N 36°54' W 001°24'2323.1 040 / 171019.310.8 21.2 0.425.3
2019-Sep-12 02:00N 36°36' W 001°42'   340 / 201015.010.8 20.012.121.0
Track history (hours):
 
Tides and Currents Weather Stations Pressure Air Temp Water Temp Dewpoint Dewpoint Depression Visibility Wind Speed Wind Dir Waves Ship Positions

Celebrity Silhouette

Last reported at 2019-Sep-21 23:31 UTC. Time now 2019-Sep-21 23:43 UTC.
Position N 50°10' W 001°27'.

Length 318 m; draft 8.6 m.

Type: Passenger vessel. MMSI: 248939000.

Date/timePositionNaut miles runAvg speedWind from/ knotsBaromVisibWave heightAir tempDewpointWater temp
2019-Sep-21 23:31N 50°10' W 001°27'714.6
2019-Sep-21 23:00N 50°06' W 001°37'6417.9
2019-Sep-21 23:00N 50°00' W 001°36'918.4 150 / 201005.3 5.4 20.317.418.4
2019-Sep-21 22:31N 50°04' W 001°48'815.8
2019-Sep-21 22:00N 50°01' W 002°00'815.9
2019-Sep-21 21:31N 49°59' W 002°12'815.9
2019-Sep-21 21:00N 49°57' W 002°24'815.8
2019-Sep-21 20:29N 49°54' W 002°36'815.9
2019-Sep-21 20:00N 49°52' W 002°47'815.9
2019-Sep-21 19:30N 49°49' W 002°58'915.7
2019-Sep-21 18:57N 49°44' W 003°10'715.8
2019-Sep-21 18:30N 49°40' W 003°20'1015.9
2019-Sep-21 17:51N 49°36' W 003°34'2315.9
2019-Sep-21 16:23N 49°22' W 004°04'512.2
2019-Sep-21 16:00N 49°18' W 004°06'924.6 160 / 221005.810.8 17.817.116.5
2019-Sep-21 15:38N 49°16' W 004°19'316.1
2019-Sep-21 15:28N 49°15' W 004°23'1225.9
2019-Sep-21 15:00N 49°06' W 004°36'5253.4 150 / 111001.510.8 17.013.415.0
2019-Sep-21 14:58N 49°11' W 004°33'816.1
2019-Sep-21 14:29N 49°06' W 004°43'815.9
2019-Sep-21 14:00N 49°01' W 004°52'714.1
2019-Sep-21 13:30N 48°59' W 005°02'815.8
2019-Sep-21 12:59N 48°56' W 005°14'816.1
2019-Sep-21 12:30N 48°52' W 005°24'816.6
2019-Sep-21 12:00N 48°48' W 005°35'815.8
2019-Sep-21 11:30N 48°42' W 005°42'916.4
2019-Sep-21 10:58N 48°34' W 005°49'716.0
2019-Sep-21 10:30N 48°28' W 005°54'816.2
2019-Sep-21 10:00N 48°20' W 005°59'4308.1
2019-Sep-21 10:00N 48°18' W 005°54'917.7 160 / 171006.2 5.4 18.617.617.9
2019-Sep-21 09:30N 48°13' W 006°04'815.8
2019-Sep-21 08:58N 48°05' W 006°11'817.0
2019-Sep-21 08:30N 47°58' W 006°16'1217.4
2019-Sep-21 07:49N 47°48' W 006°24'618.1
2019-Sep-21 07:30N 47°43' W 006°28'1117.6
2019-Sep-21 06:54N 47°33' W 006°35'917.8
2019-Sep-21 06:22N 47°25' W 006°41'1436.1
2019-Sep-21 06:00N 47°12' W 006°48'2 8.3 170 / 141005.810.8 18.316.919.0
2019-Sep-21 05:42N 47°14' W 006°49'5620.6
2019-Sep-21 03:00N 46°24' W 007°24'58 8.3 190 / 121005.310.8 18.010.219.0
2019-Sep-20 20:00N 45°48' W 008°30'13734.4 210 / 171010.2 5.4 18.018.020.0
2019-Sep-20 16:00N 43°36' W 009°24'6716.8 200 / 171012.5 0.3 17.316.217.1
2019-Sep-20 12:00N 42°30' W 009°42'2412.0 160 / 151014.0 5.4 18.016.617.0
2019-Sep-20 10:00N 42°06' W 009°42'9619.2 180 / 91014.6 5.4 19.218.118.3
2019-Sep-20 05:00N 40°30' W 009°48'2914.8 120 / 51014.610.8 19.718.618.6
2019-Sep-20 03:02N 40°01' W 009°47'817.7
2019-Sep-20 02:34N 39°53' W 009°47'417.3
2019-Sep-20 02:20N 39°49' W 009°47'411.2
2019-Sep-20 02:00N 39°48' W 009°42'1233.9 290 / 51015.627.0 19.017.420.0
2019-Sep-20 01:39N 39°37' W 009°47'1016.9
2019-Sep-20 01:05N 39°27' W 009°46'116.2
2019-Sep-20 00:59N 39°26' W 009°46'816.7
2019-Sep-20 00:30N 39°18' W 009°46'816.4
2019-Sep-20 00:01N 39°10' W 009°45'816.5
2019-Sep-19 23:31N 39°01' W 009°44'917.1
2019-Sep-19 23:01N 38°53' W 009°43'11644.3
2019-Sep-19 23:00N 38°42' W 009°42'3 5.3 290 / 151017.410.8 19.118.918.0
2019-Sep-19 22:31N 38°44' W 009°43'714.8
2019-Sep-19 22:01N 38°38' W 009°38'916.9
2019-Sep-19 21:30N 38°37' W 009°27'714.6
2019-Sep-19 21:01N 38°40' W 009°19'611.6
2019-Sep-19 20:30N 38°41' W 009°11'3 6.0
2019-Sep-19 20:00N 38°42' W 009°08'0 0.0
2019-Sep-19 19:30N 38°42' W 009°08'0 0.0
2019-Sep-19 18:59N 38°42' W 009°08'0 0.0
2019-Sep-19 18:30N 38°42' W 009°08'0 0.0
2019-Sep-19 18:01N 38°42' W 009°08'0 0.0
2019-Sep-19 17:30N 38°42' W 009°08'0 0.0
2019-Sep-19 17:00N 38°42' W 009°08'0 0.0
2019-Sep-19 16:28N 38°42' W 009°08'0 0.0
2019-Sep-19 15:58N 38°42' W 009°08'0 0.0
2019-Sep-19 15:28N 38°42' W 009°08'0 0.0
2019-Sep-19 14:58N 38°42' W 009°08'0 0.0
2019-Sep-19 14:28N 38°42' W 009°08'0 0.0
2019-Sep-19 14:00N 38°42' W 009°08'0 0.0
2019-Sep-19 13:30N 38°42' W 009°08'0 0.0
2019-Sep-19 13:00N 38°42' W 009°08'191.3
2019-Sep-19 13:00N 38°42' W 009°06'1 2.9 260 / 111013.110.8 22.013.921.0
2019-Sep-19 12:30N 38°42' W 009°08'0 0.0
2019-Sep-19 12:00N 38°42' W 009°08'0 0.5
2019-Sep-19 11:30N 38°42' W 009°07'5 9.9
2019-Sep-19 11:00N 38°41' W 009°14'612.2
2019-Sep-19 10:30N 38°39' W 009°21'714.0
2019-Sep-19 10:00N 38°32' W 009°25'815.5
2019-Sep-19 09:31N 38°25' W 009°25'817.0
2019-Sep-19 09:01N 38°16' W 009°24'816.5
2019-Sep-19 08:31N 38°08' W 009°24'816.7
2019-Sep-19 08:01N 37°60' W 009°23'816.1
2019-Sep-19 07:31N 37°51' W 009°23'918.3
2019-Sep-19 07:01N 37°42' W 009°23'4215.5
2019-Sep-19 07:00N 37°42' W 009°18'1021.1 350 / 111018.210.8 20.417.522.6
2019-Sep-19 06:30N 37°32' W 009°22'4019.7
2019-Sep-19 04:29N 36°52' W 009°18'1428.8
2019-Sep-19 04:00N 36°42' W 009°06'211.9 010 / 141017.610.8 20.118.523.3
2019-Sep-19 03:50N 36°44' W 009°06'720.4
2019-Sep-19 03:29N 36°41' W 008°58'1836.4
2019-Sep-19 03:00N 36°36' W 008°36'8466.3 350 / 201012.910.8 20.011.822.0
2019-Sep-19 02:59N 36°39' W 008°45'1720.0
2019-Sep-19 02:07N 36°34' W 008°24'520.4
2019-Sep-19 01:51N 36°32' W 008°18'920.4
2019-Sep-19 01:26N 36°29' W 008°08'1020.1
2019-Sep-19 00:57N 36°26' W 007°57'10421.0
2019-Sep-18 20:00N 35°54' W 005°54'10317.2 320 / 121017.8 5.4 21.317.821.9
2019-Sep-18 14:00N 36°12' W 003°48'18618.6 240 / 121011.510.8 23.014.924.0
2019-Sep-18 04:00N 37°42' W 000°24'7121.3 320 / 121014.310.8 23.222.423.8
2019-Sep-18 00:40N 38°43' E 000°23'1 1.2
2019-Sep-18 00:00N 38°42' E 000°24'2837.6 030 / 41015.127.0 24.022.325.0
2019-Sep-17 23:15N 39°08' E 000°38'5419.4
2019-Sep-17 20:29N 39°54' E 001°12'919.8
2019-Sep-17 20:01N 40°03' E 001°18'3202.9
2019-Sep-17 20:00N 40°06' E 001°18'1016.0 230 / 51015.9 5.4 23.917.225.2
2019-Sep-17 19:20N 40°14' E 001°26'719.9
2019-Sep-17 19:01N 40°20' E 001°30'1019.8
2019-Sep-17 18:31N 40°29' E 001°36'1020.0
2019-Sep-17 18:01N 40°38' E 001°43'1020.4
2019-Sep-17 17:30N 40°47' E 001°49'1020.1
2019-Sep-17 17:00N 40°56' E 001°56'5531.2
2019-Sep-17 17:00N 41°00' E 001°54'714.8 210 / 41015.310.8 25.018.024.8
2019-Sep-17 16:31N 41°04' E 002°02'918.8
2019-Sep-17 16:01N 41°12' E 002°08'713.8
2019-Sep-17 15:30N 41°19' E 002°10'2 4.8
2019-Sep-17 15:00N 41°22' E 002°11'0 0.0
2019-Sep-17 14:28N 41°22' E 002°11'0 0.0
2019-Sep-17 13:57N 41°22' E 002°11'0 0.0
2019-Sep-17 13:29N 41°22' E 002°11'510.2
2019-Sep-17 13:00N 41°18' E 002°06'5547.0 160 / 51016.827.0 25.015.424.0
2019-Sep-17 12:59N 41°22' E 002°11'0 0.0
2019-Sep-17 12:29N 41°22' E 002°11'0 0.0
2019-Sep-17 11:58N 41°22' E 002°11'0 0.0
2019-Sep-17 11:30N 41°22' E 002°11'0 0.0
2019-Sep-17 11:00N 41°22' E 002°11'0 0.0
2019-Sep-17 10:30N 41°22' E 002°11'5 3.3
2019-Sep-17 09:00N 41°18' E 002°06'4 1.2 070 / 51018.2 5.4 24.412.424.2
2019-Sep-17 05:25N 41°21' E 002°10'1 3.6
2019-Sep-17 05:01N 41°19' E 002°10'4 8.9
2019-Sep-17 04:31N 41°16' E 002°13'816.4
2019-Sep-17 04:01N 41°15' E 002°24'1019.6
2019-Sep-17 03:31N 41°16' E 002°37'1019.9
2019-Sep-17 03:01N 41°17' E 002°50'1020.0
2019-Sep-17 02:31N 41°18' E 003°03'1020.1
2019-Sep-17 02:01N 41°19' E 003°17'271622.9
2019-Sep-17 02:00N 41°12' E 002°42'3776.5 130 / 41017.5 2.2 22.421.622.7
2019-Sep-17 01:30N 41°21' E 003°30'1019.8
2019-Sep-17 01:00N 41°22' E 003°43'7437.3
2019-Sep-17 01:00N 41°18' E 003°36'1632.9 140 / 81013.310.8 22.013.922.0
2019-Sep-17 00:31N 41°23' E 003°56'1019.5
2019-Sep-17 00:01N 41°24' E 004°09'1019.3
2019-Sep-16 23:31N 41°25' E 004°22'1019.5
2019-Sep-16 23:01N 41°27' E 004°35'1019.4
2019-Sep-16 22:31N 41°28' E 004°48'1019.3
2019-Sep-16 22:01N 41°29' E 005°00'1019.4
2019-Sep-16 21:31N 41°30' E 005°13'1019.4
2019-Sep-16 21:01N 41°31' E 005°26'6371.1
2019-Sep-16 21:00N 41°30' E 005°18'1632.8 040 / 81018.810.8 23.021.724.2
2019-Sep-16 20:30N 41°32' E 005°39'1019.5
2019-Sep-16 20:01N 41°34' E 005°52'1019.1
2019-Sep-16 19:31N 41°35' E 006°05'918.7
2019-Sep-16 19:00N 41°36' E 006°17'918.9
2019-Sep-16 18:31N 41°37' E 006°30'1019.1
2019-Sep-16 18:00N 41°38' E 006°42'919.0
2019-Sep-16 17:31N 41°39' E 006°55'1019.1
2019-Sep-16 17:01N 41°40' E 007°08'1019.1
2019-Sep-16 16:30N 41°42' E 007°20'1019.2
2019-Sep-16 16:01N 41°43' E 007°33'1019.2
2019-Sep-16 15:31N 41°44' E 007°46'1019.1
2019-Sep-16 15:01N 41°46' E 007°58'5289.7
2019-Sep-16 15:00N 41°42' E 007°54'1428.3 280 / 61018.6 5.4 25.3 6.526.0
2019-Sep-16 14:31N 41°47' E 008°11'1019.5
2019-Sep-16 14:01N 41°48' E 008°24'1019.5
2019-Sep-16 13:31N 41°50' E 008°37'5 1.5
2019-Sep-16 10:00N 41°54' E 008°42'2 0.4 200 / 61020.427.0 25.016.825.0
2019-Sep-16 04:07N 41°55' E 008°45'0 0.7
2019-Sep-16 04:00N 41°55' E 008°45'4 7.5
2019-Sep-16 03:31N 41°52' E 008°44'714.0
2019-Sep-16 03:01N 41°48' E 008°35'8452.5
2019-Sep-16 03:00N 41°42' E 008°30'3 5.9 340 / 51020.510.8 23.719.125.0
2019-Sep-16 02:31N 41°42' E 008°34'917.9
2019-Sep-16 02:00N 41°34' E 008°39'5275.4
2019-Sep-16 02:00N 41°30' E 008°36'817.1 040 / 61016.110.8 23.014.625.0
2019-Sep-16 01:30N 41°26' E 008°46'816.6
2019-Sep-16 01:00N 41°21' E 008°55'917.4
2019-Sep-16 00:31N 41°19' E 009°06'1817.5
2019-Sep-15 23:28N 41°24' E 009°29'918.6
2019-Sep-15 23:01N 41°28' E 009°40'918.5
2019-Sep-15 22:30N 41°31' E 009°51'918.9
2019-Sep-15 22:00N 41°35' E 010°03'1019.3
2019-Sep-15 21:29N 41°39' E 010°15'919.1
2019-Sep-15 21:00N 41°43' E 010°26'1019.2
2019-Sep-15 20:30N 41°46' E 010°38'1019.3
2019-Sep-15 20:01N 41°50' E 010°50'6382.2
2019-Sep-15 20:00N 41°48' E 010°42'1633.3 210 / 71022.5 23.214.323.9
2019-Sep-15 19:31N 41°54' E 011°02'1019.6
2019-Sep-15 19:00N 41°58' E 011°14'1019.5
2019-Sep-15 18:30N 42°01' E 011°26'1019.3
2019-Sep-15 18:00N 42°05' E 011°38'6 2.7
2019-Sep-15 16:00N 42°00' E 011°42'6 1.5 260 / 81023.027.0 25.111.723.9
2019-Sep-15 12:00N 42°06' E 011°42'6 2.0 160 / 71024.027.0 27.010.323.0
2019-Sep-15 09:00N 42°00' E 011°42'9 1.5 110 / 51025.3 5.4 25.510.223.7
2019-Sep-15 03:00N 42°00' E 011°30'3316.7 160 / 71024.010.8 23.013.025.4
2019-Sep-15 01:00N 42°12' E 010°48'3140.9 070 / 101019.810.8 24.015.825.0
2019-Sep-15 00:58N 42°14' E 010°51'817.1
2019-Sep-15 00:30N 42°19' E 010°43'917.3
2019-Sep-14 23:59N 42°25' E 010°34'917.5
2019-Sep-14 23:29N 42°30' E 010°25'1017.4
2019-Sep-14 22:57N 42°37' E 010°15'817.6
2019-Sep-14 22:30N 42°42' E 010°07'816.6
2019-Sep-14 22:00N 42°49' E 010°02'816.7
2019-Sep-14 21:30N 42°57' E 010°01'917.5
2019-Sep-14 21:00N 43°06' E 009°60'917.9
2019-Sep-14 20:30N 43°13' E 009°53'917.9
2019-Sep-14 20:00N 43°20' E 009°45'816.9
2019-Sep-14 19:30N 43°29' E 009°43'917.2
2019-Sep-14 19:00N 43°37' E 009°45'3185.0
2019-Sep-14 19:00N 43°36' E 009°42'1021.6 010 / 121025.2 5.4 25.515.625.5
2019-Sep-14 18:30N 43°46' E 009°47'817.0
2019-Sep-14 18:00N 43°54' E 009°50'816.6
2019-Sep-14 17:30N 44°02' E 009°52'4 8.6
2019-Sep-14 17:00N 44°06' E 009°50'0 0.3
2019-Sep-14 16:29N 44°06' E 009°50'0 0.0
2019-Sep-14 15:59N 44°06' E 009°50'0 0.0
2019-Sep-14 15:29N 44°06' E 009°50'2 3.4
2019-Sep-14 15:00N 44°06' E 009°48'2231.5 050 / 51024.910.8 28.518.124.7
2019-Sep-14 14:59N 44°06' E 009°50'0 0.0
2019-Sep-14 14:29N 44°06' E 009°50'0 0.0
2019-Sep-14 13:59N 44°06' E 009°50'0 0.0
2019-Sep-14 13:29N 44°06' E 009°50'2 3.4
2019-Sep-14 13:00N 44°06' E 009°48'2231.5 130 / 101021.610.8 26.017.724.0
2019-Sep-14 12:59N 44°06' E 009°50'0 0.0
2019-Sep-14 12:29N 44°06' E 009°50'0 0.0
2019-Sep-14 11:59N 44°06' E 009°50'0 0.0
2019-Sep-14 11:29N 44°06' E 009°50'0 0.0
2019-Sep-14 10:59N 44°06' E 009°50'0 0.0
2019-Sep-14 10:29N 44°06' E 009°50'0 0.0
2019-Sep-14 09:59N 44°06' E 009°50'0 0.0
2019-Sep-14 09:29N 44°06' E 009°50'2 3.4
2019-Sep-14 09:00N 44°06' E 009°48'2240.9 330 / 41027.9 5.4 25.0-6.424.4
2019-Sep-14 08:59N 44°06' E 009°50'0 0.0
2019-Sep-14 08:28N 44°06' E 009°50'0 0.0
2019-Sep-14 07:58N 44°06' E 009°50'0 0.0
2019-Sep-14 07:28N 44°06' E 009°50'0 0.0
2019-Sep-14 06:58N 44°06' E 009°50'0 0.0
2019-Sep-14 06:28N 44°06' E 009°50'0 0.0
2019-Sep-14 05:58N 44°06' E 009°50'0 0.0
2019-Sep-14 05:28N 44°06' E 009°50'0 0.0
2019-Sep-14 04:58N 44°06' E 009°50'0 0.4
2019-Sep-14 04:30N 44°06' E 009°50'1 2.7
2019-Sep-14 04:00N 44°05' E 009°51'611.7
2019-Sep-14 03:30N 44°01' E 009°56'815.1
2019-Sep-14 03:01N 43°54' E 009°50'12722.9
2019-Sep-14 03:00N 43°48' E 009°36'4 7.6 100 / 71026.910.8 24.216.025.1
2019-Sep-14 02:30N 43°51' E 009°39'917.5
2019-Sep-14 02:01N 43°47' E 009°28'9539.7
2019-Sep-14 02:00N 43°42' E 009°18'2 4.5 100 / 101022.310.8 24.015.824.0
2019-Sep-14 01:30N 43°44' E 009°17'918.2
2019-Sep-14 01:00N 43°40' E 009°05'918.6
2019-Sep-14 00:30N 43°37' E 008°53'918.7
2019-Sep-14 00:00N 43°33' E 008°42'918.8
2019-Sep-13 23:30N 43°29' E 008°30'918.9
2019-Sep-13 23:00N 43°25' E 008°18'919.0
2019-Sep-13 22:31N 43°22' E 008°06'918.4
2019-Sep-13 22:00N 43°18' E 007°54'918.4
2019-Sep-13 21:30N 43°15' E 007°42'918.5
2019-Sep-13 21:00N 43°12' E 007°30'1019.0
2019-Sep-13 20:30N 43°09' E 007°18'1019.2
2019-Sep-13 20:00N 43°06' E 007°06'1019.1
2019-Sep-13 19:30N 43°02' E 006°53'1019.1
2019-Sep-13 19:00N 42°60' E 006°41'7418.5
2019-Sep-13 19:00N 42°54' E 006°36'611.7 360 / 101027.4 5.4 24.211.224.2
2019-Sep-13 18:30N 42°56' E 006°29'1018.5
2019-Sep-13 17:57N 42°54' E 006°15'4221.5
2019-Sep-13 16:00N 43°00' E 005°18'7110.8 320 / 31028.210.8 25.3 9.624.0
2019-Sep-13 15:56N 43°04' E 005°26'15 3.1
2019-Sep-13 11:00N 43°18' E 005°18'0 0.0 240 / 51029.527.0 18.0-6.626.0
2019-Sep-13 07:00N 43°18' E 005°18'30 7.4 270 / 21028.6 5.4 23.4-13.419.4
2019-Sep-13 03:00N 42°54' E 004°54'3029.8 030 / 51028.610.8 21.710.921.0
2019-Sep-13 02:00N 42°30' E 004°30'4916.3 340 / 181023.610.8 22.0 3.720.0
2019-Sep-12 22:58N 41°53' E 003°46'919.4
2019-Sep-12 22:30N 41°46' E 003°39'1019.4
2019-Sep-12 22:00N 41°38' E 003°31'1019.2
2019-Sep-12 21:30N 41°30' E 003°24'1019.7
2019-Sep-12 21:00N 41°22' E 003°16'5337.3
2019-Sep-12 21:00N 41°18' E 003°12'5 9.9 050 / 191028.5 5.4 21.812.423.0
2019-Sep-12 20:30N 41°15' E 003°08'1020.0
2019-Sep-12 20:00N 41°07' E 002°60'1019.7
2019-Sep-12 19:30N 40°59' E 002°52'9621.3
2019-Sep-12 15:00N 39°42' E 001°36'2311.4 070 / 381025.610.8 24.716.725.7
2019-Sep-12 13:00N 39°24' E 001°18'12819.7 060 / 341020.310.8 25.016.825.0
2019-Sep-12 06:30N 37°42' W 000°22'6919.7
2019-Sep-12 03:00N 36°54' W 001°24'2323.1 040 / 171019.310.8 21.2 0.425.3
2019-Sep-12 02:00N 36°36' W 001°42'   340 / 201015.010.8 20.012.121.0

Dump ship's entire track history